Waukesha, WI (53186)

12:52 AM CDT on September 15, 2014 (GMT -0500)
Singing Hills Subdivision | Change Station
CLOSE
Current Station
Personal Weather Station
Location: Waukesha, WI
Elevation: 930 ft
Nearby Weather Stations

Elev 930 ft 43.03 °N, 88.19 °W | Updated 31 seconds ago

Clear
Clear
51.9 °F
Feels Like 51.9 °F
N
0.0
Wind Variable Wind from SSW
Gusts 2.0 mph

Today
High -- | Low -- °F
--% Chance of Precip.
Yesterday
High -- | Low -- °F
Precip. -- in
6:32 AM 7:02 PM
Waning Gibbous, 58% visible
Pressure 30.16 in
Visibility 10.0 miles
Clouds Clear
Dew Point 48 °F
Humidity 85%
Rainfall 0.00 in
Snow Depth Not available.
UV 0 out of 12
Pollen 5.80 out of 12
Air Quality Not available.
Flu Activity Not available.
METAR KUES 150535Z AUTO 22005KT 10SM CLR 10/07 A3016 RMK AO2

More Conditions Fewer Conditions

Pressure 30.16 in
Visibility 10.0 miles
Clouds Clear
Dew Point 48 °F
Humidity 85%
Rainfall 0.00 in
Snow Depth Not available.
UV 0 out of 12
Pollen 5.80 out of 12
Air Quality Not available.
Flu Activity Not available.
METAR KUES 150535Z AUTO 22005KT 10SM CLR 10/07 A3016 RMK AO2

More Conditions Fewer Conditions

10-Day Weather Forecast

Almanac

Astronomy

Sep. 15, 2014 Rise Set
Actual Time 6:32 AM CDT 7:02 PM CDT
Civil Twilight 6:03 AM CDT 7:31 PM CDT
Nautical Twilight 5:30 AM CDT 8:04 PM CDT
Astronomical Twilight 4:55 AM CDT 8:39 PM CDT
Moon 11:36 PM CDT 1:41 PM CDT
Length of Visible Light 13h 27m
Length of Day
12h 30m
Tomorrow will be 2m 53s shorter.
Waning Gibbous, 58% of the Moon is Illuminated
Today
Waning Gibbous
Sep 15
Last Quarter
Sep 24
New
Oct 1
First Quarter
Oct 8
Full

Today's Extremes

State Highs State Lows

Community

WunderPhotos

Upload Photos

1,753,416 photos uploaded!

WunderBlogs® & News

Nearby

Snow Depth

Station Depth Elevation
No new snow has been reported.

Earthquake Activity

City Distance Mag. Time & Date
No recent earthquake activity has been reported nearby.
Minimum magnitude displayed is 2.5.

Coastal Water Temperatures

Place Temperature
No Stations Reporting

Nearby Weather Stations